Time;durP1;ratioP1;P1;durP2;ratioP2;P2;SDS_P1;SDS_P2;PMS_P1;PMS_P2;Temp;Humidity;BMP_temperature;BMP_pressure;BME280_temperature;BME280_humidity;BME280_pressure;Samples;Min_cycle;Max_cycle;Signal;HPM_P1;HPM_P2
2023/05/15 00:01:22;;;;;;;4.80;3.10;;;;;;;15.02;45.47;100281.60;103945;277;39641;-73
2023/05/15 00:04:01;;;;;;;6.30;3.10;;;;;;;15.03;45.39;100279.60;103890;277;38316;-70
2023/05/15 00:06:38;;;;;;;4.70;3.40;;;;;;;15.03;45.33;100274.85;103913;277;39393;-72
2023/05/15 00:09:12;;;;;;;5.50;3.20;;;;;;;15.03;45.36;100275.54;103875;277;39834;-71
2023/05/15 00:11:50;;;;;;;5.50;3.50;;;;;;;15.05;45.21;100269.13;103911;277;39405;-70
2023/05/15 00:14:24;;;;;;;6.50;3.50;;;;;;;15.05;45.18;100265.95;103996;277;38319;-72
2023/05/15 00:17:00;;;;;;;6.20;3.40;;;;;;;15.06;44.95;100265.55;103940;277;39673;-70
2023/05/15 00:19:35;;;;;;;5.80;3.30;;;;;;;15.07;44.83;100264.23;103872;277;39031;-72
2023/05/15 00:22:10;;;;;;;6.40;3.40;;;;;;;15.07;44.93;100257.73;103981;277;38275;-73
2023/05/15 00:24:44;;;;;;;5.40;3.00;;;;;;;15.07;44.90;100256.48;103963;277;38558;-73
2023/05/15 00:27:18;;;;;;;5.00;3.10;;;;;;;15.07;44.82;100255.27;103960;277;38502;-72
2023/05/15 00:29:52;;;;;;;6.20;3.50;;;;;;;15.07;44.72;100251.39;103935;277;38677;-71
2023/05/15 00:32:27;;;;;;;4.10;3.10;;;;;;;15.09;44.70;100245.15;103670;277;39124;-71
2023/05/15 00:35:02;;;;;;;3.30;3.00;;;;;;;15.09;44.65;100243.24;103972;277;39702;-68
2023/05/15 00:37:38;;;;;;;4.90;3.10;;;;;;;15.09;44.69;100236.03;103948;266;40097;-71
2023/05/15 00:40:17;;;;;;;3.10;2.80;;;;;;;15.07;44.61;100231.36;103987;277;38452;-71
2023/05/15 00:42:52;;;;;;;5.40;3.00;;;;;;;15.07;44.61;100226.83;103972;277;38238;-71
2023/05/15 00:45:26;;;;;;;5.20;3.00;;;;;;;15.07;44.59;100224.91;103247;277;897985;-71
2023/05/15 00:48:03;;;;;;;4.90;2.80;;;;;;;15.06;44.58;100220.57;103961;277;39995;-71
2023/05/15 00:50:37;;;;;;;3.90;3.10;;;;;;;15.05;44.43;100216.39;103993;277;39677;-72
2023/05/15 00:53:17;;;;;;;4.80;3.30;;;;;;;15.04;44.50;100213.85;104013;277;38478;-71
2023/05/15 00:55:59;;;;;;;3.70;2.80;;;;;;;15.02;44.60;100207.98;103988;277;38584;-70
2023/05/15 00:58:39;;;;;;;4.70;3.10;;;;;;;15.01;44.69;100214.02;103994;277;38270;-70
2023/05/15 01:01:17;;;;;;;5.00;3.10;;;;;;;14.99;44.71;100222.04;104005;277;38444;-71
2023/05/15 01:03:51;;;;;;;5.30;3.10;;;;;;;14.96;44.72;100227.27;104020;277;38359;-71
2023/05/15 01:06:25;;;;;;;3.60;3.00;;;;;;;14.96;44.54;100236.79;103993;277;39662;-71
2023/05/15 01:09:04;;;;;;;5.90;3.20;;;;;;;14.95;44.74;100235.58;103957;277;38441;-72
2023/05/15 01:11:40;;;;;;;5.10;3.00;;;;;;;14.94;44.62;100226.51;104015;277;38270;-72
2023/05/15 01:14:14;;;;;;;5.80;3.00;;;;;;;14.94;44.68;100215.98;103945;277;39127;-70
2023/05/15 01:16:49;;;;;;;4.70;2.90;;;;;;;14.94;44.53;100211.43;103717;277;39052;-72
2023/05/15 01:19:25;;;;;;;4.40;2.80;;;;;;;14.94;44.60;100209.81;103708;279;41153;-72
2023/05/15 01:22:36;;;;;;;3.90;2.50;;;;;;;14.94;44.52;100207.02;103968;277;38265;-71
2023/05/15 01:25:52;;;;;;;5.10;3.00;;;;;;;14.93;44.66;100209.90;103869;277;39267;-72
2023/05/15 01:28:34;;;;;;;6.20;2.80;;;;;;;14.92;44.56;100208.92;103972;266;39465;-72
2023/05/15 01:31:13;;;;;;;5.10;3.10;;;;;;;14.92;44.60;100190.84;103593;277;172299;-72
2023/05/15 01:33:50;;;;;;;5.40;2.90;;;;;;;14.92;44.61;100183.77;103960;277;38314;-71
2023/05/15 01:36:27;;;;;;;6.40;3.40;;;;;;;14.92;44.41;100177.98;103945;277;38663;-71
2023/05/15 01:39:11;;;;;;;4.00;3.10;;;;;;;14.93;44.49;100175.64;103992;266;38525;-71
2023/05/15 01:41:51;;;;;;;3.40;2.50;;;;;;;14.93;44.38;100174.04;103971;277;38490;-73
2023/05/15 01:44:39;;;;;;;3.80;2.50;;;;;;;14.94;44.37;100178.75;103993;277;40429;-71
2023/05/15 01:47:20;;;;;;;3.40;2.70;;;;;;;14.93;44.47;100177.73;104003;277;40128;-72
2023/05/15 01:49:54;;;;;;;4.10;2.90;;;;;;;14.92;44.55;100171.81;104026;277;38590;-73
2023/05/15 01:52:31;;;;;;;5.80;3.10;;;;;;;14.93;44.36;100168.45;103966;277;39124;-72
2023/05/15 01:55:06;;;;;;;4.90;2.80;;;;;;;14.93;44.31;100162.09;103872;277;172272;-73
2023/05/15 01:57:48;;;;;;;3.70;2.70;;;;;;;14.94;44.36;100157.35;103966;277;39667;-73
2023/05/15 02:00:31;;;;;;;5.70;3.00;;;;;;;14.94;44.30;100152.39;103952;277;39931;-72
2023/05/15 02:03:07;;;;;;;7.30;2.90;;;;;;;14.94;44.37;100148.69;103254;277;901225;-71
2023/05/15 02:05:44;;;;;;;3.40;3.00;;;;;;;14.94;44.24;100145.55;103186;278;913731;-71
2023/05/15 02:08:21;;;;;;;4.70;2.90;;;;;;;14.94;44.30;100152.02;103770;278;40324;-71
2023/05/15 02:10:54;;;;;;;3.50;3.00;;;;;;;14.95;44.24;100154.99;103827;278;38816;-72
2023/05/15 02:13:30;;;;;;;5.50;2.90;;;;;;;14.94;44.19;100163.12;103790;278;38380;-72
2023/05/15 02:16:08;;;;;;;10.10;2.70;;;;;;;14.94;44.22;100160.66;103804;278;38621;-72
2023/05/15 02:18:44;;;;;;;6.30;2.60;;;;;;;14.95;44.24;100153.77;103778;278;39641;-70
2023/05/15 02:21:18;;;;;;;5.10;3.20;;;;;;;14.95;44.20;100147.78;103774;278;38487;-72
2023/05/15 02:23:54;;;;;;;3.30;2.70;;;;;;;14.95;44.25;100143.57;103805;278;38701;-72
2023/05/15 02:26:42;;;;;;;6.10;2.90;;;;;;;14.95;44.29;100137.03;103816;278;38276;-73
2023/05/15 02:29:21;;;;;;;4.70;2.70;;;;;;;14.96;44.23;100135.25;103851;278;39833;-73
2023/05/15 02:32:01;;;;;;;;;;;;;;;14.96;44.32;100132.80;103856;267;38618;-72
2023/05/15 02:34:44;;;;;;;3.60;2.90;;;;;;;14.92;44.35;100129.13;103847;278;39013;-71
2023/05/15 02:37:28;;;;;;;3.50;2.70;;;;;;;14.94;44.29;100125.73;103803;278;38531;-69
2023/05/15 02:40:07;;;;;;;3.40;2.90;;;;;;;14.94;44.47;100122.19;103831;278;38735;-71
2023/05/15 02:42:51;;;;;;;3.10;2.50;;;;;;;14.96;44.30;100115.73;103710;278;38764;-69
2023/05/15 02:45:27;;;;;;;6.40;2.70;;;;;;;14.97;44.42;100103.23;103850;278;38369;-72
2023/05/15 02:48:03;;;;;;;5.80;2.80;;;;;;;15.00;44.21;100100.45;103828;278;40138;-72
2023/05/15 02:50:38;;;;;;;5.00;2.50;;;;;;;15.00;44.30;100100.91;103816;278;39712;-71
2023/05/15 02:53:15;;;;;;;5.50;2.80;;;;;;;15.02;44.27;100094.49;103831;278;38525;-72
2023/05/15 02:55:49;;;;;;;5.10;2.90;;;;;;;15.03;44.16;100090.76;103765;278;38629;-71
2023/05/15 02:58:29;;;;;;;5.50;2.50;;;;;;;15.04;44.24;100080.16;103800;278;38470;-72
2023/05/15 03:01:04;;;;;;;3.90;2.60;;;;;;;15.04;44.28;100074.15;103822;278;39403;-69
2023/05/15 03:03:39;;;;;;;3.00;2.70;;;;;;;15.04;44.25;100073.27;103824;278;38390;-72
2023/05/15 03:06:13;;;;;;;5.80;2.90;;;;;;;15.05;44.26;100075.48;103811;278;38242;-73
2023/05/15 03:08:47;;;;;;;5.70;2.90;;;;;;;15.05;44.18;100074.09;103817;278;39732;-73
2023/05/15 03:11:22;;;;;;;4.00;2.90;;;;;;;15.05;44.26;100075.88;103772;278;38503;-71
2023/05/15 03:13:59;;;;;;;6.80;2.80;;;;;;;15.05;44.37;100065.17;103714;266;174952;-70
2023/05/15 03:16:37;;;;;;;4.30;2.70;;;;;;;15.05;44.42;100054.99;103821;278;38504;-71
2023/05/15 03:19:11;;;;;;;5.70;2.50;;;;;;;15.03;44.39;100051.72;103822;278;38513;-70
2023/05/15 03:21:46;;;;;;;3.70;2.90;;;;;;;15.03;44.40;100049.66;103827;278;38425;-72
2023/05/15 03:24:20;;;;;;;4.30;2.80;;;;;;;15.03;44.42;100043.83;103838;278;38649;-71
2023/05/15 03:27:00;;;;;;;5.40;2.90;;;;;;;15.04;44.43;100040.45;103845;278;39687;-71
2023/05/15 03:29:38;;;;;;;7.90;3.20;;;;;;;15.04;44.38;100031.83;103869;278;39883;-72
2023/05/15 03:32:17;;;;;;;7.80;2.90;;;;;;;15.04;44.48;100030.09;103836;278;39022;-72
2023/05/15 03:34:52;;;;;;;6.20;3.30;;;;;;;15.04;44.42;100028.52;103812;278;40668;-69
2023/05/15 03:37:27;;;;;;;4.80;3.00;;;;;;;15.04;44.65;100030.09;103810;278;38213;-71
2023/05/15 03:40:01;;;;;;;6.40;3.10;;;;;;;15.03;44.97;100029.98;103800;278;38487;-73
2023/05/15 03:42:35;;;;;;;5.70;3.40;;;;;;;15.01;45.11;100024.64;103799;278;38238;-72
2023/05/15 03:45:13;;;;;;;5.60;3.00;;;;;;;14.99;45.38;100021.77;103778;278;39391;-71
2023/05/15 03:47:48;;;;;;;5.80;2.90;;;;;;;14.96;45.25;100016.89;103809;278;38896;-71
2023/05/15 03:50:23;;;;;;;4.70;2.70;;;;;;;14.93;45.20;100015.64;103805;278;38938;-69
2023/05/15 03:52:59;;;;;;;6.50;2.90;;;;;;;14.92;45.34;100016.02;103232;279;671545;-72
2023/05/15 03:55:35;;;;;;;5.00;2.70;;;;;;;14.91;45.41;100011.56;103824;278;38222;-69
2023/05/15 03:58:12;;;;;;;6.20;3.10;;;;;;;14.89;45.43;100007.47;103721;278;174927;-71
2023/05/15 04:00:53;;;;;;;6.70;2.90;;;;;;;14.88;45.65;99999.61;103831;278;39443;-70
2023/05/15 04:03:29;;;;;;;6.60;3.40;;;;;;;14.87;45.45;99999.53;103819;278;38514;-71
2023/05/15 04:06:07;;;;;;;5.90;2.90;;;;;;;14.87;45.68;100013.56;103785;278;39440;-71
2023/05/15 04:08:47;;;;;;;5.10;3.10;;;;;;;14.86;45.62;100008.50;103819;278;38484;-73
2023/05/15 04:11:28;;;;;;;5.90;3.30;;;;;;;14.85;45.73;100006.45;103825;278;38274;-71
2023/05/15 04:14:03;;;;;;;4.30;3.00;;;;;;;14.85;45.70;100004.70;103854;278;38487;-69
2023/05/15 04:16:38;;;;;;;5.20;2.90;;;;;;;14.85;45.84;99995.93;103883;278;39455;-70
2023/05/15 04:19:15;;;;;;;7.40;2.80;;;;;;;14.85;45.94;99995.93;103861;278;38511;-70
2023/05/15 04:21:52;;;;;;;4.60;3.10;;;;;;;14.84;45.93;99983.69;103825;278;38720;-71
2023/05/15 04:24:26;;;;;;;6.30;3.30;;;;;;;14.84;46.01;99986.73;103883;278;39210;-72
2023/05/15 04:27:00;;;;;;;8.70;3.00;;;;;;;14.83;46.35;99978.20;103839;278;39413;-73
2023/05/15 04:29:33;;;;;;;6.50;3.00;;;;;;;14.83;46.42;99975.04;103875;278;38423;-71
2023/05/15 04:32:08;;;;;;;7.70;3.30;;;;;;;14.82;46.60;99970.52;103819;278;39720;-72
2023/05/15 04:34:43;;;;;;;10.50;3.30;;;;;;;14.80;46.63;99968.66;103728;280;38240;-70
2023/05/15 04:37:19;;;;;;;8.00;3.50;;;;;;;14.80;46.73;99967.29;103671;278;174966;-72
2023/05/15 04:39:55;;;;;;;7.80;3.20;;;;;;;14.79;47.02;99961.90;103801;278;38610;-72
2023/05/15 04:42:30;;;;;;;7.30;3.20;;;;;;;14.79;47.20;99959.65;103811;278;38395;-72
2023/05/15 04:45:07;;;;;;;7.00;3.60;;;;;;;14.78;47.27;99956.33;103797;278;38511;-70
2023/05/15 04:47:43;;;;;;;6.50;3.30;;;;;;;14.78;47.36;99961.77;103862;278;38529;-71
2023/05/15 04:50:20;;;;;;;6.20;3.30;;;;;;;14.79;47.30;99957.55;103681;278;174965;-72
2023/05/15 04:52:56;;;;;;;5.80;3.00;;;;;;;14.80;47.31;99954.83;103845;278;38428;-68
2023/05/15 04:55:32;;;;;;;6.30;3.40;;;;;;;14.80;47.45;99956.54;103856;278;38968;-71
2023/05/15 04:58:10;;;;;;;10.10;3.40;;;;;;;14.81;47.63;99959.11;103834;278;38243;-69
2023/05/15 05:00:51;;;;;;;6.90;3.70;;;;;;;14.81;48.01;99952.80;103836;278;38678;-70
2023/05/15 05:03:27;;;;;;;6.60;4.00;;;;;;;14.81;48.32;99952.14;103849;278;38520;-73
2023/05/15 05:06:04;;;;;;;7.30;3.80;;;;;;;14.79;48.81;99946.97;103850;278;39904;-72
2023/05/15 05:08:38;;;;;;;5.40;3.90;;;;;;;14.78;49.29;99947.38;103721;280;39824;-73
2023/05/15 05:11:12;;;;;;;10.00;4.90;;;;;;;14.76;50.28;99944.88;103781;278;38706;-72
2023/05/15 05:13:48;;;;;;;6.50;3.70;;;;;;;14.75;50.95;99944.42;103807;278;38860;-71
2023/05/15 05:16:22;;;;;;;9.60;4.10;;;;;;;14.73;50.88;99946.84;103876;278;38716;-70
2023/05/15 05:18:59;;;;;;;6.70;4.00;;;;;;;14.72;53.11;99939.34;103820;278;38500;-72
2023/05/15 05:21:37;;;;;;;10.30;4.30;;;;;;;14.68;54.11;99928.88;103808;278;39563;-72
2023/05/15 05:24:11;;;;;;;10.00;4.30;;;;;;;14.64;53.35;99919.45;103757;278;174970;-71
2023/05/15 05:26:46;;;;;;;11.00;4.10;;;;;;;14.62;52.72;99919.59;103798;278;38367;-71
2023/05/15 05:29:20;;;;;;;8.00;3.70;;;;;;;14.61;52.44;99919.13;103809;278;38704;-72
2023/05/15 05:31:55;;;;;;;5.30;4.10;;;;;;;14.61;52.41;99917.88;103672;278;174938;-73
2023/05/15 05:34:32;;;;;;;8.40;3.80;;;;;;;14.62;52.92;99917.33;103792;278;38485;-72
2023/05/15 05:37:10;;;;;;;7.10;3.90;;;;;;;14.61;53.59;99914.38;103785;278;38393;-69
2023/05/15 05:39:53;;;;;;;9.20;4.00;;;;;;;14.61;54.03;99909.27;103795;278;38552;-71
2023/05/15 05:42:26;;;;;;;;;;;;;;;14.63;53.57;99904.42;103821;278;38418;-72
2023/05/15 05:45:03;;;;;;;8.00;3.90;;;;;;;14.63;54.27;99905.11;103755;278;38752;-72
2023/05/15 05:47:40;;;;;;;9.60;4.00;;;;;;;14.67;54.84;99905.58;103786;278;38487;-72
2023/05/15 05:50:17;;;;;;;7.70;3.70;;;;;;;14.69;54.85;99900.32;103807;278;38457;-72
2023/05/15 05:52:53;;;;;;;7.00;3.70;;;;;;;14.74;54.83;99904.64;103816;278;38565;-72
2023/05/15 05:55:30;;;;;;;4.80;4.10;;;;;;;14.81;55.38;99907.66;103861;278;38446;-71
2023/05/15 05:58:04;;;;;;;7.90;3.50;;;;;;;14.90;56.38;99910.43;103786;278;38614;-71
2023/05/15 06:00:40;;;;;;;7.00;3.40;;;;;;;15.01;55.35;99910.84;103844;278;38517;-71
2023/05/15 06:03:16;;;;;;;8.00;3.30;;;;;;;15.10;54.74;99907.80;103873;278;38242;-71
2023/05/15 06:05:51;;;;;;;6.50;3.20;;;;;;;15.18;53.99;99912.15;103857;278;38642;-72
2023/05/15 06:08:32;;;;;;;8.00;3.60;;;;;;;15.25;52.71;99912.42;103860;278;38228;-72
2023/05/15 06:11:07;;;;;;;6.00;3.00;;;;;;;15.30;52.06;99915.95;103842;278;39403;-72
2023/05/15 06:13:44;;;;;;;5.90;3.20;;;;;;;15.33;51.84;99917.52;103844;278;38795;-71
2023/05/15 06:16:22;;;;;;;5.50;3.50;;;;;;;15.36;51.60;99920.31;103781;278;39131;-72
2023/05/15 06:18:56;;;;;;;6.30;3.10;;;;;;;15.36;50.87;99924.54;103188;278;901020;-73
2023/05/15 06:21:30;;;;;;;6.20;2.90;;;;;;;15.34;50.88;99923.77;103782;278;38837;-73
2023/05/15 06:24:09;;;;;;;5.40;3.20;;;;;;;15.33;50.97;99929.33;103683;280;38288;-73
2023/05/15 06:26:44;;;;;;;5.70;3.00;;;;;;;15.29;51.25;99932.19;103798;278;38341;-73
2023/05/15 06:29:18;;;;;;;7.10;3.40;;;;;;;15.26;51.40;99931.03;103835;278;38230;-69
2023/05/15 06:31:53;;;;;;;5.20;3.10;;;;;;;15.21;52.06;99933.40;103685;278;174972;-72
2023/05/15 06:34:27;;;;;;;5.70;3.40;;;;;;;15.18;52.83;99935.90;103831;266;39701;-69
2023/05/15 06:37:01;;;;;;;7.90;3.30;;;;;;;15.12;52.96;99932.64;103801;278;38376;-69
2023/05/15 06:39:38;;;;;;;5.50;3.20;;;;;;;15.03;53.58;99934.71;103804;278;39649;-71
2023/05/15 06:42:18;;;;;;;5.20;3.60;;;;;;;14.94;54.86;99937.05;103778;278;38508;-70
2023/05/15 06:44:52;;;;;;;5.60;3.40;;;;;;;14.85;55.31;99943.61;103821;278;38479;-72
2023/05/15 06:47:27;;;;;;;6.70;3.70;;;;;;;14.76;55.89;99941.39;103792;278;39463;-72
2023/05/15 06:50:01;;;;;;;10.80;4.10;;;;;;;14.68;57.33;99938.17;103800;278;39680;-73
2023/05/15 06:52:37;;;;;;;8.20;3.70;;;;;;;14.59;58.13;99936.29;103853;278;38244;-73
2023/05/15 06:55:14;;;;;;;7.00;3.80;;;;;;;14.48;58.99;99935.69;103886;278;38590;-73
2023/05/15 06:57:48;;;;;;;7.80;4.40;;;;;;;14.37;59.54;99932.48;103853;278;38742;-73
2023/05/15 07:00:23;;;;;;;10.50;4.00;;;;;;;14.28;60.23;99933.20;103854;278;38601;-74
2023/05/15 07:02:58;;;;;;;7.20;4.50;;;;;;;14.22;60.98;99928.64;103713;280;38436;-71
2023/05/15 07:05:33;;;;;;;7.80;4.30;;;;;;;14.18;61.56;99925.73;103812;278;38288;-72
2023/05/15 07:08:07;;;;;;;7.20;4.30;;;;;;;14.12;62.39;99932.21;103833;278;38242;-74
2023/05/15 07:10:46;;;;;;;5.90;3.60;;;;;;;14.04;62.49;99928.50;103819;278;40363;-74
2023/05/15 07:13:22;;;;;;;6.80;4.00;;;;;;;14.01;62.85;99928.85;103830;278;38609;-74
2023/05/15 07:15:57;;;;;;;5.40;4.10;;;;;;;14.00;62.99;99931.95;103828;278;38274;-74
2023/05/15 07:18:36;;;;;;;6.90;4.90;;;;;;;13.99;63.38;99933.04;103855;278;38522;-73
2023/05/15 07:21:12;;;;;;;7.00;4.50;;;;;;;13.98;64.38;99934.48;103816;278;38469;-72
2023/05/15 07:23:48;;;;;;;8.70;5.30;;;;;;;13.91;64.63;99925.08;103789;278;38419;-74
2023/05/15 07:26:30;;;;;;;6.00;4.40;;;;;;;13.89;64.75;99924.31;103822;278;38729;-73
2023/05/15 07:29:08;;;;;;;8.00;4.40;;;;;;;13.88;64.95;99923.34;103815;278;38625;-72
2023/05/15 07:31:45;;;;;;;5.40;4.00;;;;;;;13.88;65.50;99920.16;103788;278;38410;-72
2023/05/15 07:34:20;;;;;;;6.40;4.20;;;;;;;13.88;66.18;99924.18;103722;278;175013;-72
2023/05/15 07:36:57;;;;;;;6.70;4.40;;;;;;;13.92;66.02;99928.52;103852;278;39947;-72
2023/05/15 07:39:31;;;;;;;6.60;4.80;;;;;;;13.97;66.78;99925.45;103837;278;39625;-72
2023/05/15 07:42:07;;;;;;;7.90;4.60;;;;;;;13.98;66.91;99919.42;103728;278;175026;-72
2023/05/15 07:44:41;;;;;;;6.30;4.30;;;;;;;14.03;66.85;99921.91;103848;278;38730;-71
2023/05/15 07:47:16;;;;;;;5.00;4.20;;;;;;;14.04;66.72;99920.44;103862;278;38252;-70
2023/05/15 07:49:50;;;;;;;9.70;4.90;;;;;;;14.06;66.61;99916.81;103851;278;39056;-71
2023/05/15 07:52:24;;;;;;;5.70;4.20;;;;;;;14.09;66.87;99919.60;103851;278;38750;-72
2023/05/15 07:55:00;;;;;;;7.00;4.80;;;;;;;14.12;66.83;99912.38;103845;278;39705;-72
2023/05/15 07:57:36;;;;;;;7.10;4.60;;;;;;;14.18;67.22;99909.94;103724;278;38499;-74
2023/05/15 08:00:13;;;;;;;6.10;4.50;;;;;;;14.18;67.42;99904.84;103819;278;38249;-71
2023/05/15 08:02:51;;;;;;;6.00;4.40;;;;;;;14.22;67.32;99906.20;103803;278;38358;-73
2023/05/15 08:05:26;;;;;;;6.70;5.10;;;;;;;14.30;68.51;99901.51;103703;266;39637;-72
2023/05/15 08:08:01;;;;;;;6.20;5.10;;;;;;;14.34;68.22;99892.50;103788;278;38241;-72
2023/05/15 08:10:37;;;;;;;9.30;4.90;;;;;;;14.42;68.06;99891.26;103766;278;38487;-72
2023/05/15 08:13:17;;;;;;;5.40;4.20;;;;;;;14.50;67.93;99891.37;103814;278;38478;-73
2023/05/15 08:15:54;;;;;;;5.20;4.20;;;;;;;14.53;67.92;99886.61;103835;278;38868;-74
2023/05/15 08:18:29;;;;;;;7.30;5.30;;;;;;;14.54;67.56;99887.59;103782;278;39585;-72
2023/05/15 08:21:08;;;;;;;6.10;5.00;;;;;;;14.51;67.73;99877.59;103869;278;39419;-71
2023/05/15 08:23:43;;;;;;;;;;;;;;;14.51;67.91;99868.46;103708;278;39868;-72
2023/05/15 08:26:18;;;;;;;8.20;5.40;;;;;;;14.49;67.92;99870.72;103889;278;39379;-71
2023/05/15 08:28:52;;;;;;;6.30;5.30;;;;;;;14.52;68.38;99865.83;103862;278;39459;-72
2023/05/15 08:31:27;;;;;;;6.70;5.30;;;;;;;14.54;68.72;99866.20;103837;278;38448;-71
2023/05/15 08:34:01;;;;;;;8.10;5.00;;;;;;;14.55;68.47;99864.35;103856;278;38588;-72
2023/05/15 08:36:37;;;;;;;9.20;5.30;;;;;;;14.59;68.87;99869.22;103880;278;40064;-73
2023/05/15 08:39:12;;;;;;;6.00;5.40;;;;;;;14.58;68.61;99869.14;103861;278;38352;-73
2023/05/15 08:41:59;;;;;;;5.70;5.00;;;;;;;14.53;69.02;99869.94;103807;278;38218;-73
2023/05/15 08:44:35;;;;;;;7.50;4.60;;;;;;;14.48;68.98;99859.00;103828;278;39468;-73
2023/05/15 08:47:14;;;;;;;7.80;4.70;;;;;;;14.43;68.89;99854.88;103819;278;39424;-73
2023/05/15 08:50:00;;;;;;;6.40;4.70;;;;;;;14.44;69.15;99850.27;103813;278;39058;-73
2023/05/15 08:52:35;;;;;;;7.00;5.20;;;;;;;14.46;69.24;99846.48;103840;278;38385;-73
2023/05/15 08:55:12;;;;;;;7.50;5.00;;;;;;;14.46;69.28;99846.31;103815;278;38285;-74
2023/05/15 08:57:47;;;;;;;6.90;4.60;;;;;;;14.44;69.12;99841.33;103820;278;38460;-74
2023/05/15 09:00:23;;;;;;;8.70;5.20;;;;;;;14.43;69.25;99837.68;103739;278;175004;-72
2023/05/15 09:02:59;;;;;;;6.70;5.30;;;;;;;14.42;69.26;99834.25;103808;278;38984;-73
2023/05/15 09:05:34;;;;;;;6.40;5.30;;;;;;;14.39;69.11;99833.40;103717;278;38249;-72
2023/05/15 09:08:08;;;;;;;5.80;5.20;;;;;;;14.37;69.47;99835.59;103813;278;39876;-73
2023/05/15 09:10:45;;;;;;;7.70;4.70;;;;;;;14.33;69.70;99842.36;103796;278;38462;-73
2023/05/15 09:13:20;;;;;;;6.80;5.30;;;;;;;14.29;69.76;99849.33;103861;278;38803;-72
2023/05/15 09:15:57;;;;;;;9.60;5.40;;;;;;;14.26;70.29;99858.27;103843;278;39362;-73
2023/05/15 09:18:33;;;;;;;7.00;5.20;;;;;;;14.20;70.15;99859.65;103835;278;39483;-73
2023/05/15 09:21:27;;;;;;;8.50;5.30;;;;;;;14.18;70.71;99868.23;103845;278;38339;-74
2023/05/15 09:24:22;;;;;;;8.10;4.90;;;;;;;14.18;71.15;99869.80;103923;278;39887;-74
2023/05/15 09:27:07;;;;;;;6.70;4.70;;;;;;;14.18;71.27;99859.22;103791;278;39628;-75
2023/05/15 09:29:42;;;;;;;8.10;6.00;;;;;;;14.27;71.76;99853.58;103832;278;39311;-73
2023/05/15 09:32:18;;;;;;;7.40;6.20;;;;;;;14.34;72.21;99840.57;103804;278;38558;-74
2023/05/15 09:34:54;;;;;;;7.80;5.90;;;;;;;14.38;71.90;99839.96;103838;278;38809;-70
2023/05/15 09:37:35;;;;;;;7.00;5.50;;;;;;;14.43;72.12;99835.73;103815;278;38364;-72
2023/05/15 09:40:18;;;;;;;6.40;5.10;;;;;;;14.45;71.93;99833.38;103786;278;39507;-74
2023/05/15 09:42:56;;;;;;;7.90;6.50;;;;;;;14.47;72.84;99830.64;103789;278;39620;-71
2023/05/15 09:45:32;;;;;;;6.90;5.30;;;;;;;14.49;72.69;99828.59;103822;278;38482;-75
2023/05/15 09:48:12;;;;;;;7.40;5.80;;;;;;;14.49;72.60;99825.27;103688;278;38643;-74
2023/05/15 09:50:48;;;;;;;7.20;4.90;;;;;;;14.41;72.58;99822.05;103803;278;40090;-73
2023/05/15 09:53:27;;;;;;;7.80;5.10;;;;;;;14.36;72.94;99817.96;103825;278;38380;-74
2023/05/15 09:56:05;;;;;;;7.00;5.20;;;;;;;14.32;73.15;99816.44;103799;278;38420;-74
2023/05/15 09:58:55;;;;;;;6.70;5.70;;;;;;;14.31;73.33;99819.88;103781;278;38833;-74
2023/05/15 10:01:28;;;;;;;;;;;;;;;14.31;73.64;99813.92;103798;278;39403;-74
2023/05/15 10:04:07;;;;;;;7.00;5.80;;;;;;;14.29;74.05;99813.30;103840;278;38413;-73
2023/05/15 10:06:48;;;;;;;8.40;5.90;;;;;;;14.33;73.98;99808.52;103830;278;38511;-74
2023/05/15 10:09:23;;;;;;;9.80;4.80;;;;;;;14.39;74.20;99803.39;103798;278;38230;-73
2023/05/15 10:11:57;;;;;;;7.90;5.90;;;;;;;14.43;74.06;99804.55;103814;278;38458;-73
2023/05/15 10:14:31;;;;;;;6.30;5.60;;;;;;;14.48;74.28;99809.70;103801;278;39226;-73
2023/05/15 10:17:07;;;;;;;9.30;6.60;;;;;;;14.44;74.78;99807.47;103835;278;38239;-73
2023/05/15 10:19:42;;;;;;;5.50;5.00;;;;;;;14.33;74.31;99800.77;103861;278;38737;-74
2023/05/15 10:22:17;;;;;;;6.70;5.70;;;;;;;14.24;74.48;99807.48;103691;278;39632;-75
2023/05/15 10:24:56;;;;;;;7.00;5.30;;;;;;;14.17;74.42;99804.55;103689;280;38336;-74
2023/05/15 10:27:28;;;;;;;;;;;;;;;14.16;74.55;99805.36;103687;278;39548;-75
2023/05/15 10:30:10;;;;;;;7.00;6.30;;;;;;;14.14;75.28;99798.13;103851;278;38240;-72
2023/05/15 10:32:44;;;;;;;6.30;5.50;;;;;;;14.17;75.74;99799.64;103873;278;38282;-73
2023/05/15 10:35:19;;;;;;;7.10;5.40;;;;;;;14.14;75.73;99802.16;103848;278;39461;-73
2023/05/15 10:37:53;;;;;;;7.30;5.80;;;;;;;14.13;76.35;99808.52;103824;278;38371;-74
2023/05/15 10:40:27;;;;;;;7.60;5.90;;;;;;;14.17;76.65;99814.55;103805;278;38792;-74
2023/05/15 10:43:01;;;;;;;9.60;7.00;;;;;;;14.17;76.45;99813.73;103800;278;38263;-74
2023/05/15 10:45:38;;;;;;;7.60;6.20;;;;;;;14.17;76.46;99807.05;103708;280;38289;-75
2023/05/15 10:48:16;;;;;;;8.20;5.70;;;;;;;14.22;76.67;99810.58;103828;278;39683;-75
2023/05/15 10:50:51;;;;;;;6.30;5.40;;;;;;;14.29;77.07;99806.65;103692;278;39654;-75
2023/05/15 10:53:28;;;;;;;8.00;5.90;;;;;;;14.29;76.73;99806.85;103814;278;38439;-73
2023/05/15 10:56:01;;;;;;;6.00;5.40;;;;;;;14.29;76.82;99802.61;103787;278;38231;-73
2023/05/15 10:58:37;;;;;;;6.50;5.70;;;;;;;14.33;77.29;99801.63;103835;278;39584;-73
2023/05/15 11:01:30;;;;;;;6.60;5.30;;;;;;;14.36;77.00;99800.41;103789;278;38981;-74
2023/05/15 11:04:13;;;;;;;9.20;5.40;;;;;;;14.34;77.11;99800.38;103807;278;38482;-74
2023/05/15 11:06:51;;;;;;;6.40;5.80;;;;;;;14.33;77.24;99797.61;103783;278;38241;-73
2023/05/15 11:09:42;;;;;;;6.60;5.90;;;;;;;14.30;77.06;99795.39;103813;278;38532;-72
2023/05/15 11:12:21;;;;;;;7.90;5.50;;;;;;;14.33;77.61;99793.76;103815;278;39472;-74
2023/05/15 11:15:22;;;;;;;6.00;5.00;;;;;;;14.31;77.00;99791.64;103791;278;38223;-73
2023/05/15 11:18:11;;;;;;;5.50;5.00;;;;;;;14.30;77.14;99794.16;103716;278;175047;-74
2023/05/15 11:21:11;;;;;;;6.20;5.50;;;;;;;14.26;77.26;99797.91;103749;278;39672;-74
2023/05/15 11:23:48;;;;;;;6.20;5.20;;;;;;;14.17;77.53;99795.33;103807;278;39409;-74
2023/05/15 11:26:38;;;;;;;8.30;5.00;;;;;;;14.09;78.22;99794.72;103800;278;39909;-74
2023/05/15 11:29:23;;;;;;;5.40;4.40;;;;;;;14.04;78.49;99793.45;103804;278;38985;-74
2023/05/15 11:32:05;;;;;;;5.70;5.10;;;;;;;14.00;78.41;99787.58;103707;280;38505;-74
2023/05/15 11:34:46;;;;;;;6.00;4.70;;;;;;;14.04;78.73;99783.84;103764;278;38092;-74
2023/05/15 11:37:22;;;;;;;6.30;4.80;;;;;;;14.06;79.16;99781.40;103800;278;38358;-73
2023/05/15 11:39:57;;;;;;;4.40;4.00;;;;;;;14.09;79.34;99780.71;103870;278;38360;-74
2023/05/15 11:42:31;;;;;;;3.90;3.60;;;;;;;14.08;79.21;99772.02;103849;278;38238;-74
2023/05/15 11:45:06;;;;;;;4.30;3.30;;;;;;;14.11;79.73;99774.30;103793;278;38285;-76
2023/05/15 11:47:53;;;;;;;4.40;4.00;;;;;;;14.09;79.74;99775.94;103663;280;38481;-74
2023/05/15 11:50:33;;;;;;;6.40;4.00;;;;;;;14.09;79.61;99770.16;103812;278;38339;-74
2023/05/15 11:53:11;;;;;;;4.40;3.60;;;;;;;14.10;80.20;99769.77;103144;278;713117;-74
2023/05/15 11:55:45;;;;;;;3.60;3.30;;;;;;;14.08;80.21;99769.02;103776;278;38241;-75
2023/05/15 11:58:25;;;;;;;3.70;3.40;;;;;;;14.08;80.52;99763.92;103783;278;37960;-74
2023/05/15 12:01:01;;;;;;;4.30;3.90;;;;;;;14.13;80.30;99761.33;103868;278;38220;-74
2023/05/15 12:03:37;;;;;;;4.30;3.80;;;;;;;14.16;80.81;99766.89;103809;278;39672;-74
2023/05/15 12:06:12;;;;;;;4.30;3.90;;;;;;;14.16;80.41;99760.94;103813;278;38292;-74
2023/05/15 12:08:51;;;;;;;4.00;3.20;;;;;;;14.18;80.55;99757.51;103791;278;38518;-74
2023/05/15 12:11:30;;;;;;;4.40;3.70;;;;;;;14.17;80.65;99757.23;103793;278;38215;-75
2023/05/15 12:14:04;;;;;;;3.70;3.30;;;;;;;14.16;80.69;99751.88;103803;278;39630;-73
2023/05/15 12:16:40;;;;;;;4.00;3.70;;;;;;;14.16;80.96;99749.93;103819;278;39430;-73
2023/05/15 12:19:14;;;;;;;4.10;3.80;;;;;;;14.12;81.19;99751.39;103791;278;38629;-73